Latest Coastal Weather Observations for Lombadina

IDW60701

Issued at 6:33 am WST Friday 31 March 2017 (issued every 10 minutes, with the page automatically refreshed every 10 minutes)

About coastal observations | Map of coastal stations | Coastal observations for WA | Marine services | Other Formats
Station Details ID: 503016 Name: LOMBADINA AIRSTRIP Lat: -16.52 Lon: 122.92 Height: 42.0 m
Data from the previous 72 hours. | See also: Recent months for locations in Western Australia
Date/Time
WST
Temp
°C
Wind Pressure Rain since
9am
mm
Weather Cloud Vis
km
Sea
Height
m
Swell
Dir  Spd
kts
Gust
kts
hPa Trend Height
m
Period
s
Dir
31/06:30am 27.4 S 4 7 1010.1 - 0.0 - - 10 - - - -
31/06:00am 26.6 SSW 2 4 1010.2 - 0.0 - - 10 - - - -
31/05:30am 27.0 SSW 2 4 1010.2 - 0.0 - - 10 - - - -
31/05:00am 27.0 SSW 1 3 1010.1 - 0.0 - - 10 - - - -
31/04:30am 27.0 SW 1 3 1009.9 - 0.0 - - 10 - - - -
31/04:00am 27.1 SW 2 4 1009.9 - 0.0 - - 10 - - - -
31/03:30am 27.1 SW 2 5 1009.7 - 0.0 - - 10 - - - -
31/03:00am 27.3 SW 2 5 1009.6 - 0.0 - - 10 - - - -
31/02:30am 27.5 SW 3 5 1009.6 - 0.0 - - 10 - - - -
31/02:00am 27.8 WSW 3 5 1009.6 - 0.0 - - 10 - - - -
31/01:30am 27.6 WSW 3 5 1010.1 - 0.0 - - 10 - - - -
31/01:00am 27.6 WSW 3 6 1010.4 - 0.0 - - 10 - - - -
31/12:30am 27.6 WSW 3 6 1010.6 - 0.0 - - 10 - - - -
31/12:00am 27.8 SW 4 6 1010.9 - 0.0 - - 10 - - - -
 
Date/Time
WST
Temp
°C
Wind Pressure Rain since
9am
mm
Weather Cloud Vis
km
Sea
Height
m
Swell
Dir  Spd
kts
Gust
kts
hPa Trend Height
m
Period
s
Dir
30/11:30pm 28.1 WSW 3 6 1011.1 - 0.0 - - 10 - - - -
30/11:00pm 28.2 WSW 3 5 1011.5 - 0.0 - - 10 - - - -
30/10:30pm 28.3 WSW 3 5 1011.6 - 0.0 - - 10 - - - -
30/10:00pm 28.4 WSW 4 7 1011.6 - 0.0 - - 10 - - - -
30/09:30pm 28.6 WSW 4 7 1011.8 - 0.0 - - 10 - - - -
30/09:00pm 28.5 W 3 7 1012.0 - 0.0 - - 10 - - - -
30/08:30pm 28.6 WSW 3 5 1011.8 - 0.0 - - 10 - - - -
30/08:00pm 28.8 WSW 4 7 1011.6 - 0.0 - - 10 - - - -
30/07:30pm 28.8 WSW 3 7 1010.8 - 0.0 - - 10 - - - -
30/07:00pm 29.1 WSW 3 5 1010.6 - 0.0 - - 10 - - - -
30/06:30pm 29.3 SW 4 7 1010.3 - 0.0 - - 10 - - - -
30/06:00pm 29.9 WSW 3 7 1009.8 - 0.0 - - 10 - - - -
30/05:30pm 30.7 WSW 5 9 1009.2 - 0.0 - - 10 - - - -
30/05:00pm 31.8 WSW 6 9 1009.0 - 0.0 - - 10 - - - -
30/04:30pm 32.6 WSW 4 7 1008.6 - 0.0 - - 10 - - - -
30/04:00pm 32.7 WSW 3 7 1008.3 - 0.0 - - 10 - - - -
30/03:30pm 33.4 ESE 3 6 1008.3 - 0.0 - - 10 - - - -
30/03:00pm 33.3 ESE 5 7 1008.2 - 0.0 - - 10 - - - -
30/02:30pm 33.4 E 6 10 1008.3 - 0.0 - - 10 - - - -
30/02:00pm 33.2 ESE 7 11 1008.4 - 0.0 - - 10 - - - -
30/01:30pm 32.8 SE 5 10 1008.7 - 0.0 - - 10 - - - -
30/01:00pm 33.3 ESE 6 11 1009.0 - 0.0 - - 10 - - - -
30/12:30pm 32.2 ESE 6 13 1009.3 - 0.0 - - 10 - - - -
30/12:00pm 32.5 ESE 7 13 1009.4 - 0.0 - - 10 - - - -
30/11:30am 31.9 SE 8 14 1009.7 - 0.0 - - 10 - - - -
30/11:00am 31.8 SE 9 16 1010.4 - 0.0 - - 10 - - - -
30/10:30am 31.3 ESE 9 14 1010.8 - 0.0 - - 10 - - - -
30/10:00am 30.9 ESE 7 13 1011.1 - 0.0 - - 10 - - - -
30/09:30am 31.0 ESE 7 13 1011.4 - 0.0 - - 10 - - - -
30/09:00am 30.3 SE 7 13 1011.4 - 0.0 - - 10 - - - -
30/08:30am 30.3 ESE 8 18 1011.5 - 0.0 - - 10 - - - -
30/08:00am 29.5 ESE 7 17 1011.5 - 0.0 - Partly cloudy 10 - - - -
30/07:30am 28.4 SE 4 9 1011.6 - 0.0 - Partly cloudy 10 - - - -
30/07:00am 27.4 SE 6 10 1011.6 - 0.0 - Partly cloudy 10 - - - -
30/06:30am 26.7 SE 5 9 1011.4 - 0.0 - Partly cloudy 10 - - - -
30/06:00am 26.5 SE 5 9 1011.3 - 0.0 - - 10 - - - -
30/05:30am 26.5 SE 5 11 1010.8 - 0.0 - - 10 - - - -
30/05:00am 26.6 SSE 5 9 1010.6 - 0.0 - - 10 - - - -
30/04:30am 26.7 S 3 8 1010.6 - 0.0 - - 10 - - - -
30/04:00am 26.5 SSW 3 5 1010.4 - 0.0 - - 10 - - - -
30/03:30am 26.7 SW 2 4 1010.5 - 0.0 - Partly cloudy 10 - - - -
30/03:00am 26.9 SW 2 4 1010.6 - 0.0 - Mostly cloudy 10 - - - -
30/02:30am 27.0 SW 2 4 1010.4 - 0.0 - Cloudy 10 - - - -
30/02:00am 26.9 SSW 3 4 1010.5 - 0.0 - Partly cloudy 10 - - - -
30/01:30am 27.0 SSW 3 7 1010.6 - 0.0 - Partly cloudy 10 - - - -
30/01:00am 27.2 S 3 7 1010.6 - 0.0 - Cloudy 10 - - - -
30/12:30am 27.2 SSW 3 7 1010.7 - 0.0 - Partly cloudy 10 - - - -
30/12:00am 27.3 SW 4 7 1010.5 - 0.0 - Partly cloudy 10 - - - -
 
Date/Time
WST
Temp
°C
Wind Pressure Rain since
9am
mm
Weather Cloud Vis
km
Sea
Height
m
Swell
Dir  Spd
kts
Gust
kts
hPa Trend Height
m
Period
s
Dir
29/11:30pm 27.4 SW 5 9 1010.5 - 0.0 - Partly cloudy 10 - - - -
29/11:00pm 27.4 SW 4 8 1010.3 - 0.0 - - 10 - - - -
29/10:30pm 27.4 SW 5 11 1010.5 - 0.0 - - 10 - - - -
29/10:00pm 27.4 SW 4 8 1010.6 - 0.0 - - 10 - - - -
29/09:30pm 27.6 SW 3 6 1010.8 - 0.0 - - 10 - - - -
29/09:00pm 27.6 SW 3 5 1010.7 - 0.0 - - 10 - - - -
29/08:30pm 27.6 WSW 3 7 1010.4 - 0.0 - - 10 - - - -
29/08:00pm 27.8 WSW 3 6 1010.0 - 0.0 - - 10 - - - -
29/07:30pm 28.0 WSW 3 5 1009.6 - 0.0 - - 10 - - - -
29/07:00pm 28.3 WSW 3 7 1009.3 - 0.0 - - 10 - - - -
29/06:30pm 28.4 WSW 4 7 1008.4 - 0.0 - - 10 - - - -
29/06:00pm 28.7 WSW 4 9 1007.9 - 0.0 - Mostly clear 10 - - - -
29/05:30pm 29.1 WSW 5 11 1007.8 - 0.0 - Partly cloudy 10 - - - -
29/05:00pm 30.3 WSW 5 9 1007.8 - 0.0 - - 10 - - - -
29/04:30pm 30.6 W 5 9 1007.5 - 0.0 - Partly cloudy 10 - - - -
29/04:00pm 30.7 W 4 8 1007.5 - 0.0 - Partly cloudy 10 - - - -
29/03:30pm 31.5 W 6 11 1007.2 - 0.0 - Partly cloudy 10 - - - -
29/03:00pm 32.0 W 6 10 1007.5 - 0.0 - Mostly clear 10 - - - -
29/02:30pm 31.4 WNW 7 11 1008.0 - 0.0 - Partly cloudy 10 - - - -
29/02:00pm 32.0 WNW 6 11 1008.2 - 0.0 - - 10 - - - -
29/01:30pm 31.9 WNW 6 12 1008.3 - 0.0 - Partly cloudy 10 - - - -
29/01:00pm 33.0 W 5 8 1008.8 - 0.0 - Partly cloudy 10 - - - -
29/12:30pm 32.4 NW 7 10 1009.0 - 0.0 - Partly cloudy 10 - - - -
29/12:00pm 31.9 WNW 7 11 1009.4 - 0.0 - Cloudy 10 - - - -
29/11:30am 32.1 WNW 6 12 1010.0 - 0.0 - Partly cloudy 10 - - - -
29/11:00am 31.8 NW 7 11 1010.6 - 0.0 - Partly cloudy 10 - - - -
29/10:30am 31.7 SE 2 5 1010.9 - 0.0 - Partly cloudy 10 - - - -
29/10:00am 31.5 SE 3 6 1010.9 - 0.0 - Partly cloudy 10 - - - -
29/09:30am 31.2 SE 4 7 1010.9 - 0.0 - Partly cloudy 10 - - - -
29/09:00am 29.7 SW 3 6 1011.1 - 0.0 - Mostly clear 10 - - - -
29/08:30am 28.6 SSW 3 6 1011.2 - 0.0 - - 10 - - - -
29/08:00am 28.4 SSW 4 6 1011.1 - 0.0 - Partly cloudy 10 - - - -
29/07:30am 28.4 SSW 3 6 1010.9 - 0.0 - Partly cloudy 10 - - - -
29/07:00am 27.2 S 2 5 1010.5 - 0.0 - - 10 - - - -
29/06:30am 26.2 S 2 5 1010.1 - 0.0 - - 10 - - - -
29/06:00am 25.3 SSW 2 3 1009.6 - 0.0 - - 10 - - - -
29/05:30am 25.0 SSW 2 4 1009.3 - 0.0 - - 10 - - - -
29/05:00am 25.3 SW 1 2 1009.0 - 0.0 - - 10 - - - -
29/04:30am 24.7 CALM 0 2 1009.0 - 0.0 - - 10 - - - -
29/04:00am 25.1 CALM 0 2 1008.9 - 0.0 - - 10 - - - -
29/03:30am 25.1 SSW 2 3 1008.8 - 0.0 - - 10 - - - -
29/03:00am 25.3 SSW 2 3 1008.7 - 0.0 - - 10 - - - -
29/02:30am 25.3 SSW 1 3 1008.8 - 0.0 - - 10 - - - -
29/02:00am 25.3 SSW 1 4 1008.8 - 0.0 - Partly cloudy 10 - - - -
29/01:30am 25.4 SSW 1 3 1009.0 - 0.0 - Partly cloudy 10 - - - -
29/01:00am 25.2 S 1 3 1009.3 - 0.0 - - 10 - - - -
29/12:30am 25.3 SSW 1 2 1009.5 - 0.0 - Partly cloudy 10 - - - -
29/12:00am 25.3 CALM 0 2 1009.7 - 0.0 - - 10 - - - -
 
Date/Time
WST
Temp
°C
Wind Pressure Rain since
9am
mm
Weather Cloud Vis
km
Sea
Height
m
Swell
Dir  Spd
kts
Gust
kts
hPa Trend Height
m
Period
s
Dir
28/11:30pm 25.4 S 2 3 1010.1 - 0.0 - - 10 - - - -
28/11:00pm 25.2 WSW 1 3 1010.4 - 0.0 - - 10 - - - -
28/10:30pm 25.6 CALM 0 3 1010.5 - 0.0 - Partly cloudy 10 - - - -
28/10:00pm 26.2 WSW 2 4 1010.5 - 0.0 - - 10 - - - -
28/09:30pm 25.9 WSW 2 3 1010.2 - 0.0 - - 10 - - - -
28/09:00pm 25.9 SW 1 3 1009.9 - 0.0 - - 10 - - - -
28/08:30pm 26.5 WSW 2 4 1009.8 - 0.0 - - 10 - - - -
28/08:00pm 26.9 WSW 3 5 1009.5 - 0.0 - - 10 - - - -
28/07:30pm 27.3 WSW 3 6 1009.1 - 0.0 - - 10 - - - -
28/07:00pm 27.6 W 4 7 1008.7 - 0.0 - - 10 - - - -
28/06:30pm 27.8 W 3 6 1008.3 - 0.0 - - 10 - - - -
28/06:00pm 28.1 W 4 7 1008.2 - 0.0 - - 10 - - - -
28/05:30pm 29.0 W 4 9 1008.1 - 0.0 - Partly cloudy 10 - - - -
28/05:00pm 29.2 W 6 10 1007.6 - 0.0 - - 10 - - - -
28/04:30pm 29.9 WNW 6 10 1007.3 - 0.0 - - 10 - - - -
28/04:00pm 29.7 WNW 7 13 1007.2 - 0.0 - - 10 - - - -
28/03:30pm 30.2 WNW 8 13 1007.3 - 0.0 - - 10 - - - -
28/03:00pm 30.7 WNW 7 12 1007.5 - 0.0 - - 10 - - - -
28/02:30pm 31.1 W 7 12 1007.8 - 0.0 - Partly cloudy 10 - - - -
28/02:00pm 31.2 NW 9 14 1008.0 - 0.0 - - 10 - - - -
28/01:30pm 30.6 WNW 8 14 1008.3 - 0.0 - - 10 - - - -
28/01:00pm 31.0 NW 9 14 1008.6 - 0.0 - Partly cloudy 10 - - - -
28/12:30pm 30.8 WNW 8 15 1009.1 - 0.0 - Partly cloudy 10 - - - -
28/12:00pm 30.3 NW 9 14 1009.4 - 0.0 - Mostly clear 10 - - - -
28/11:30am 31.1 WNW 7 13 1009.7 - 0.0 - Partly cloudy 10 - - - -
28/11:00am 30.8 WNW 8 13 1009.9 - 0.0 - Partly cloudy 10 - - - -
28/10:30am 31.4 WNW 7 14 1010.3 - 0.0 - Partly cloudy 10 - - - -
28/10:00am 31.1 WNW 4 9 1010.6 - 0.0 - Partly cloudy 10 - - - -
28/09:30am 31.0 W 4 8 1011.0 - 0.0 - Partly cloudy 10 - - - -
28/09:00am 30.8 WSW 4 7 1011.2 - 0.0 - Mostly clear 10 - - - -
28/08:30am 29.9 SW 4 8 1011.2 - 0.0 - Partly cloudy 10 - - - -
28/08:00am 29.2 SW 3 8 1011.2 - 0.0 - Partly cloudy 10 - - - -
28/07:30am 28.3 SSW 2 4 1010.8 - 0.0 - - 10 - - - -
28/07:00am 27.5 S 1 4 1010.5 - 0.0 - - 10 - - - -

Other Formats:

Comma delimited format used in spreadsheet applications
http://www.bom.gov.au/fwo/IDW60701/IDW60701.99206.axf

JavaScript Object Notation format (JSON) in row-major order
http://www.bom.gov.au/fwo/IDW60701/IDW60701.99206.json